createdAt,value
2018-09-23T00:01:15.789Z,2.00
2018-09-23T00:03:44.088Z,1.97
2018-09-23T00:06:12.369Z,1.90
2018-09-23T00:08:40.631Z,1.80
2018-09-23T00:11:08.985Z,1.67
2018-09-23T00:13:37.281Z,1.80
2018-09-23T00:16:05.545Z,1.97
2018-09-23T00:18:33.839Z,3.23
2018-09-23T00:21:02.098Z,2.10
2018-09-23T00:23:30.401Z,2.30
2018-09-23T00:25:58.681Z,2.60
2018-09-23T00:28:26.943Z,1.70
2018-09-23T00:30:55.237Z,1.93
2018-09-23T00:33:23.512Z,2.07
2018-09-23T00:35:51.767Z,2.30
2018-09-23T00:38:20.019Z,1.90
2018-09-23T00:40:48.287Z,3.07
2018-09-23T00:43:16.563Z,1.70
2018-09-23T00:45:44.907Z,1.70
2018-09-23T00:48:13.195Z,1.97
2018-09-23T00:50:41.467Z,1.87
2018-09-23T00:53:09.742Z,1.87
2018-09-23T00:55:38.023Z,2.17
2018-09-23T00:58:06.307Z,1.80
2018-09-23T01:00:34.577Z,1.70
2018-09-23T01:03:03.379Z,2.73
2018-09-23T01:05:31.667Z,2.47
2018-09-23T01:08:00.007Z,2.60
2018-09-23T01:10:28.277Z,2.73
2018-09-23T01:12:56.565Z,2.50
2018-09-23T01:15:24.845Z,2.20
2018-09-23T01:17:53.125Z,2.60
2018-09-23T01:20:21.473Z,3.13
2018-09-23T01:22:50.224Z,2.53
2018-09-23T01:25:18.499Z,2.60
2018-09-23T01:27:46.765Z,2.13
2018-09-23T01:30:15.033Z,2.17
2018-09-23T01:32:43.287Z,2.03
2018-09-23T01:35:11.574Z,2.10
2018-09-23T01:37:39.823Z,2.10
2018-09-23T01:40:08.103Z,2.33
2018-09-23T01:42:36.393Z,2.00
2018-09-23T01:45:04.933Z,2.07
2018-09-23T01:47:33.203Z,1.70
2018-09-23T01:50:01.497Z,1.50
2018-09-23T01:52:29.793Z,1.70
2018-09-23T01:54:58.079Z,2.00
2018-09-23T01:57:26.380Z,1.70
2018-09-23T01:59:54.643Z,1.67
2018-09-23T02:02:22.913Z,1.80
2018-09-23T02:04:51.177Z,1.70
2018-09-23T02:07:19.434Z,1.90
2018-09-23T02:09:47.733Z,1.37
2018-09-23T02:12:15.999Z,1.83
2018-09-23T02:14:44.306Z,1.30
2018-09-23T02:17:12.575Z,1.60
2018-09-23T02:19:41.740Z,1.97
2018-09-23T02:22:10.018Z,1.60
2018-09-23T02:24:38.286Z,1.53
2018-09-23T02:27:06.592Z,1.70
2018-09-23T02:29:34.848Z,1.40
2018-09-23T02:32:03.109Z,1.67
2018-09-23T02:34:31.389Z,1.60
2018-09-23T02:36:59.661Z,1.77
2018-09-23T02:39:27.997Z,1.80
2018-09-23T02:41:56.215Z,1.53
2018-09-23T02:44:24.494Z,1.60
2018-09-23T02:46:52.781Z,1.37
2018-09-23T02:49:21.028Z,1.57
2018-09-23T02:51:49.315Z,1.53
2018-09-23T02:54:17.597Z,1.47
2018-09-23T02:56:45.908Z,2.27
2018-09-23T02:59:14.203Z,1.70
2018-09-23T03:01:42.454Z,1.60
2018-09-23T03:04:10.707Z,1.47
2018-09-23T03:06:38.958Z,1.40
2018-09-23T03:09:07.281Z,1.40
2018-09-23T03:11:35.549Z,1.90
2018-09-23T03:14:03.835Z,1.83
2018-09-23T03:16:32.085Z,1.83
2018-09-23T03:19:00.365Z,2.00
2018-09-23T03:21:28.627Z,1.47
2018-09-23T03:23:56.909Z,1.77
2018-09-23T03:26:25.167Z,2.07
2018-09-23T03:28:53.423Z,1.73
2018-09-23T03:31:21.812Z,3.03
2018-09-23T03:33:50.045Z,2.83
2018-09-23T03:36:18.313Z,2.40
2018-09-23T03:38:46.592Z,1.50
2018-09-23T03:41:14.887Z,2.10
2018-09-23T03:43:43.165Z,1.60
2018-09-23T03:46:11.441Z,2.67
2018-09-23T03:48:39.854Z,4.53
2018-09-23T03:51:08.149Z,2.37
2018-09-23T03:53:36.418Z,1.60
2018-09-23T03:56:04.692Z,3.67
2018-09-23T03:58:32.969Z,2.60
2018-09-23T04:01:01.245Z,1.67
2018-09-23T04:03:29.492Z,1.93
2018-09-23T04:05:57.784Z,1.67
2018-09-23T04:08:26.060Z,2.30
2018-09-23T04:10:54.324Z,3.10
2018-09-23T04:13:22.592Z,1.40
2018-09-23T04:15:51.039Z,1.83
2018-09-23T04:18:19.297Z,1.73
2018-09-23T04:20:47.568Z,1.90
2018-09-23T04:23:15.837Z,1.53
2018-09-23T04:25:44.104Z,3.17
2018-09-23T04:28:12.609Z,1.73
2018-09-23T04:30:40.879Z,1.90
2018-09-23T04:33:09.157Z,1.80
2018-09-23T04:35:37.434Z,1.50
2018-09-23T04:38:06.032Z,1.80
2018-09-23T04:40:34.303Z,1.83
2018-09-23T04:43:02.571Z,1.90
2018-09-23T04:45:30.870Z,1.50
2018-09-23T04:47:59.148Z,2.00
2018-09-23T04:50:27.419Z,1.83
2018-09-23T04:52:55.687Z,1.70
2018-09-23T04:55:24.027Z,2.20
2018-09-23T04:57:52.246Z,2.20
2018-09-23T05:00:20.513Z,1.40
2018-09-23T05:02:48.859Z,1.67
2018-09-23T05:05:17.200Z,1.43
2018-09-23T05:07:45.511Z,3.13
2018-09-23T05:10:14.140Z,1.67
2018-09-23T05:12:42.433Z,3.80
2018-09-23T05:15:10.680Z,1.83
2018-09-23T05:17:38.965Z,1.80
2018-09-23T05:20:07.248Z,2.73
2018-09-23T05:22:35.538Z,1.63
2018-09-23T05:25:03.824Z,2.37
2018-09-23T05:27:32.084Z,2.40
2018-09-23T05:30:00.685Z,2.67
2018-09-23T05:32:29.225Z,1.70
2018-09-23T05:34:57.614Z,2.40
2018-09-23T05:37:25.894Z,1.80
2018-09-23T05:39:54.164Z,1.67
2018-09-23T05:42:22.511Z,1.80
2018-09-23T05:44:50.793Z,1.73
2018-09-23T05:47:19.062Z,1.90
2018-09-23T05:49:47.328Z,1.60
2018-09-23T05:52:15.592Z,1.47
2018-09-23T05:54:43.884Z,2.10
2018-09-23T05:57:12.164Z,1.97
2018-09-23T05:59:40.416Z,1.30
2018-09-23T06:02:08.692Z,1.70
2018-09-23T06:04:37.740Z,1.87
2018-09-23T06:07:06.200Z,2.53
2018-09-23T06:09:34.486Z,1.57
2018-09-23T06:12:03.028Z,2.03
2018-09-23T06:14:31.294Z,2.07
2018-09-23T06:16:59.740Z,1.93
2018-09-23T06:19:28.096Z,2.40
2018-09-23T06:21:56.397Z,2.00
2018-09-23T06:24:26.424Z,3.33
2018-09-23T06:26:54.738Z,3.27
2018-09-23T06:29:23.096Z,2.20
2018-09-23T06:31:51.460Z,1.40
2018-09-23T06:34:19.786Z,1.50
2018-09-23T06:36:48.089Z,2.60
2018-09-23T06:39:16.431Z,1.83
2018-09-23T06:41:44.720Z,1.50
2018-09-23T06:44:13.004Z,1.67
2018-09-23T06:46:41.354Z,1.30
2018-09-23T06:49:09.634Z,2.23
2018-09-23T06:51:37.910Z,1.20
2018-09-23T06:54:06.177Z,1.53
2018-09-23T06:56:34.433Z,1.20
2018-09-23T06:59:02.713Z,1.47
2018-09-23T07:01:30.988Z,1.20
2018-09-23T07:03:59.297Z,1.30
2018-09-23T07:06:27.678Z,1.10
2018-09-23T07:08:55.983Z,2.00
2018-09-23T07:11:24.280Z,4.33
2018-09-23T07:13:52.572Z,1.47
2018-09-23T07:16:20.872Z,1.37
2018-09-23T07:18:49.192Z,1.57
2018-09-23T07:21:17.500Z,1.20
2018-09-23T07:23:45.866Z,1.00
2018-09-23T07:26:14.114Z,1.20
2018-09-23T07:28:42.377Z,1.20
2018-09-23T07:31:10.752Z,1.20
2018-09-23T07:33:39.036Z,1.30
2018-09-23T07:36:07.329Z,1.40
2018-09-23T07:38:35.635Z,1.00
2018-09-23T07:41:03.904Z,1.27
2018-09-23T07:43:32.870Z,1.20
2018-09-23T07:46:01.158Z,1.20
2018-09-23T07:48:29.437Z,1.20
2018-09-23T07:50:57.796Z,2.27
2018-09-23T07:53:26.045Z,1.30
2018-09-23T07:55:54.313Z,2.10
2018-09-23T07:58:22.839Z,3.57
2018-09-23T08:00:51.184Z,1.17
2018-09-23T08:03:19.516Z,1.60
2018-09-23T08:05:47.793Z,1.23
2018-09-23T08:08:16.088Z,1.33
2018-09-23T08:10:44.400Z,1.30
2018-09-23T08:13:12.761Z,1.20
2018-09-23T08:15:41.040Z,1.43
2018-09-23T08:18:09.336Z,1.10
2018-09-23T08:20:37.696Z,1.50
2018-09-23T08:23:06.194Z,2.63
2018-09-23T08:25:34.450Z,1.40
2018-09-23T08:28:02.697Z,1.10
2018-09-23T08:30:31.004Z,1.00
2018-09-23T08:32:59.294Z,1.60
2018-09-23T08:35:27.586Z,1.30
2018-09-23T08:37:55.899Z,1.20
2018-09-23T08:40:24.227Z,1.47
2018-09-23T08:42:52.593Z,1.47
2018-09-23T08:45:20.808Z,1.40
2018-09-23T08:47:49.165Z,1.20
2018-09-23T08:50:17.447Z,1.60
2018-09-23T08:52:45.725Z,1.10
2018-09-23T08:55:14.016Z,1.30
2018-09-23T08:57:42.371Z,1.33
2018-09-23T09:00:10.627Z,1.53
2018-09-23T09:02:38.934Z,1.43
2018-09-23T09:05:07.272Z,1.50
2018-09-23T09:07:35.785Z,1.30
2018-09-23T09:10:04.066Z,1.33
2018-09-23T09:12:32.457Z,2.50
2018-09-23T09:15:00.727Z,1.40
2018-09-23T09:17:29.092Z,1.70
2018-09-23T09:19:57.476Z,1.60
2018-09-23T09:22:25.776Z,1.53
2018-09-23T09:24:54.061Z,1.30
2018-09-23T09:27:22.352Z,1.40
2018-09-23T09:29:50.726Z,1.60
2018-09-23T09:32:19.088Z,1.40
2018-09-23T09:34:47.391Z,1.60
2018-09-23T09:37:15.693Z,2.83
2018-09-23T09:39:43.996Z,1.70
2018-09-23T09:42:12.421Z,1.33
2018-09-23T09:44:40.737Z,1.20
2018-09-23T09:47:09.336Z,1.20
2018-09-23T09:49:37.658Z,1.27
2018-09-23T09:52:06.076Z,1.23
2018-09-23T09:54:34.389Z,1.20
2018-09-23T09:57:02.667Z,1.23
2018-09-23T09:59:30.982Z,1.20
2018-09-23T10:01:59.317Z,1.50
2018-09-23T10:04:27.633Z,1.20
2018-09-23T10:06:55.932Z,1.20
2018-09-23T10:09:24.211Z,1.20
2018-09-23T10:11:52.501Z,1.20
2018-09-23T10:14:20.801Z,1.00
2018-09-23T10:16:49.124Z,1.20
2018-09-23T10:19:17.453Z,27.80
2018-09-23T10:21:45.790Z,6.37
2018-09-23T10:24:14.205Z,4.30
2018-09-23T10:26:42.507Z,5.00
2018-09-23T10:29:10.816Z,1.90
2018-09-23T10:31:39.118Z,3.13
2018-09-23T10:34:07.409Z,2.23
2018-09-23T10:36:35.712Z,1.20
2018-09-23T10:39:05.745Z,1.50
2018-09-23T10:41:34.028Z,2.00
2018-09-23T10:44:02.309Z,1.10
2018-09-23T10:46:30.634Z,1.63
2018-09-23T10:48:58.934Z,1.00
2018-09-23T10:51:27.235Z,0.97
2018-09-23T10:53:55.564Z,1.17
2018-09-23T10:56:23.855Z,1.00
2018-09-23T10:58:52.194Z,1.00
2018-09-23T11:01:20.500Z,2.23
2018-09-23T11:03:49.226Z,1.87
2018-09-23T11:06:17.487Z,0.90
2018-09-23T11:08:45.780Z,1.20
2018-09-23T11:11:14.125Z,10.20
2018-09-23T11:13:42.490Z,7.33
2018-09-23T11:16:10.790Z,1.83
2018-09-23T11:18:39.100Z,1.70
2018-09-23T11:21:07.608Z,1.10
2018-09-23T11:23:35.923Z,1.47
2018-09-23T11:26:04.269Z,1.13
2018-09-23T11:28:32.601Z,1.03
2018-09-23T11:31:00.939Z,1.33
2018-09-23T11:33:29.290Z,1.20
2018-09-23T11:35:57.628Z,1.03
2018-09-23T11:38:26.038Z,0.90
2018-09-23T11:40:54.343Z,1.40
2018-09-23T11:43:22.705Z,1.20
2018-09-23T11:45:51.037Z,1.20
2018-09-23T11:48:19.400Z,0.97
2018-09-23T11:50:47.711Z,1.37
2018-09-23T11:53:16.074Z,1.20
2018-09-23T11:55:44.450Z,1.20
2018-09-23T11:58:12.752Z,1.17
2018-09-23T12:00:41.110Z,1.10
2018-09-23T12:03:09.597Z,1.80
2018-09-23T12:05:37.937Z,1.20
2018-09-23T12:08:06.416Z,1.63
2018-09-23T12:10:34.777Z,1.20
2018-09-23T12:13:04.013Z,1.20
2018-09-23T12:15:32.419Z,0.93
2018-09-23T12:18:00.710Z,1.10
2018-09-23T12:20:29.051Z,1.10
2018-09-23T12:22:57.460Z,1.33
2018-09-23T12:25:25.925Z,1.00
2018-09-23T12:27:54.207Z,0.97
2018-09-23T12:30:22.594Z,2.00
2018-09-23T12:32:50.922Z,1.30
2018-09-23T12:35:19.294Z,1.30
2018-09-23T12:37:47.640Z,1.40
2018-09-23T12:40:16.030Z,1.43
2018-09-23T12:42:44.408Z,1.17
2018-09-23T12:45:12.776Z,1.20
2018-09-23T12:47:41.158Z,1.00
2018-09-23T12:50:09.501Z,1.10
2018-09-23T12:52:37.854Z,1.00
2018-09-23T12:55:06.441Z,1.10
2018-09-23T12:57:34.776Z,0.90
2018-09-23T13:00:03.098Z,0.90
2018-09-23T13:02:31.501Z,1.00
2018-09-23T13:04:59.798Z,1.70
2018-09-23T13:07:28.154Z,0.90
2018-09-23T13:09:56.535Z,1.00
2018-09-23T13:12:24.902Z,0.90
2018-09-23T13:14:53.297Z,0.90
2018-09-23T13:17:21.697Z,1.00
2018-09-23T13:19:50.053Z,0.80
2018-09-23T13:22:18.459Z,0.87
2018-09-23T13:24:46.787Z,0.83
2018-09-23T13:27:15.134Z,1.10
2018-09-23T13:29:43.491Z,1.10
2018-09-23T13:32:11.880Z,0.80
2018-09-23T13:34:40.243Z,1.10
2018-09-23T13:37:08.744Z,1.07
2018-09-23T13:39:37.122Z,1.00
2018-09-23T13:42:05.456Z,1.10
2018-09-23T13:44:33.784Z,1.03
2018-09-23T13:47:02.134Z,1.00
2018-09-23T13:49:30.545Z,0.90
2018-09-23T13:51:58.893Z,2.00
2018-09-23T13:54:27.381Z,1.00
2018-09-23T13:56:55.661Z,0.97
2018-09-23T13:59:24.007Z,1.00
2018-09-23T14:01:52.386Z,1.00
2018-09-23T14:04:20.800Z,1.60
2018-09-23T14:06:49.167Z,1.27
2018-09-23T14:09:17.527Z,0.90
2018-09-23T14:11:46.402Z,1.00
2018-09-23T14:14:15.742Z,1.00
2018-09-23T14:16:44.113Z,1.13
2018-09-23T14:19:12.568Z,0.97
2018-09-23T14:21:40.949Z,1.90
2018-09-23T14:24:09.302Z,1.20
2018-09-23T14:26:37.658Z,1.43
2018-09-23T14:29:06.402Z,1.33
2018-09-23T14:31:35.506Z,1.00
2018-09-23T14:34:04.074Z,1.00
2018-09-23T14:36:32.636Z,1.00
2018-09-23T14:39:00.965Z,3.87
2018-09-23T14:41:29.374Z,42.90
2018-09-23T14:43:57.932Z,81.07
2018-09-23T14:46:26.345Z,49.30
2018-09-23T14:48:55.398Z,47.67
2018-09-23T14:51:23.929Z,31.30
2018-09-23T14:53:52.391Z,24.53
2018-09-23T14:56:20.761Z,19.50
2018-09-23T14:58:49.455Z,16.70
2018-09-23T15:01:18.057Z,13.07
2018-09-23T15:03:46.464Z,16.83
2018-09-23T15:06:14.834Z,23.73
2018-09-23T15:08:43.226Z,22.17
2018-09-23T15:11:11.617Z,13.53
2018-09-23T15:13:41.083Z,15.67
2018-09-23T15:16:09.778Z,7.23
2018-09-23T15:18:38.206Z,9.00
2018-09-23T15:21:06.593Z,9.20
2018-09-23T15:23:34.977Z,3.33
2018-09-23T15:26:03.686Z,8.43
2018-09-23T15:28:32.193Z,5.90
2018-09-23T15:31:00.599Z,9.33
2018-09-23T15:33:28.997Z,4.97
2018-09-23T15:35:57.498Z,3.60
2018-09-23T15:38:25.925Z,3.03
2018-09-23T15:40:54.864Z,4.03
2018-09-23T15:43:23.308Z,2.70
2018-09-23T15:45:51.758Z,1.80
2018-09-23T15:48:20.141Z,2.40
2018-09-23T15:50:48.559Z,6.13
2018-09-23T15:53:16.993Z,2.63
2018-09-23T15:55:46.393Z,3.67
2018-09-23T15:58:15.139Z,2.37
2018-09-23T16:00:44.070Z,3.03
2018-09-23T16:03:12.464Z,2.97
2018-09-23T16:05:40.837Z,2.53
2018-09-23T16:08:09.218Z,2.63
2018-09-23T16:10:37.730Z,2.23
2018-09-23T16:13:06.157Z,2.17
2018-09-23T16:15:34.529Z,0.70
2018-09-23T16:18:03.625Z,2.10
2018-09-23T16:20:32.131Z,1.20
2018-09-23T16:23:01.503Z,1.13
2018-09-23T16:25:29.895Z,1.07
2018-09-23T16:27:58.298Z,0.80
2018-09-23T16:30:26.725Z,0.73
2018-09-23T16:32:55.186Z,0.80
2018-09-23T16:35:23.889Z,1.63
2018-09-23T16:37:52.297Z,1.60
2018-09-23T16:40:20.703Z,0.67
2018-09-23T16:42:49.392Z,0.77
2018-09-23T16:45:17.781Z,0.60
2018-09-23T16:47:46.313Z,0.63
2018-09-23T16:50:14.954Z,0.83
2018-09-23T16:52:44.771Z,0.50
2018-09-23T16:55:13.292Z,0.93
2018-09-23T16:57:41.733Z,0.70
2018-09-23T17:00:10.171Z,0.70
2018-09-23T17:02:38.756Z,1.13
2018-09-23T17:05:07.238Z,0.70
2018-09-23T17:07:35.683Z,1.00
2018-09-23T17:10:04.201Z,0.50
2018-09-23T17:12:32.699Z,1.00
2018-09-23T17:15:01.123Z,0.50
2018-09-23T17:17:29.815Z,0.50
2018-09-23T17:19:58.824Z,0.57
2018-09-23T17:22:27.310Z,0.87
2018-09-23T17:24:55.781Z,0.40
2018-09-23T17:27:24.241Z,0.60
2018-09-23T17:29:52.694Z,0.60
2018-09-23T17:32:21.134Z,0.30
2018-09-23T17:34:49.719Z,0.80
2018-09-23T17:37:18.463Z,4.40
2018-09-23T17:39:47.350Z,1.80
2018-09-23T17:42:15.801Z,2.07
2018-09-23T17:44:44.900Z,0.80
2018-09-23T17:47:13.376Z,0.77
2018-09-23T17:49:41.815Z,0.87
2018-09-23T17:52:11.216Z,0.60
2018-09-23T17:54:39.759Z,1.27
2018-09-23T17:57:08.624Z,0.50
2018-09-23T17:59:37.076Z,0.60
2018-09-23T18:02:05.525Z,0.63
2018-09-23T18:04:34.247Z,0.97
2018-09-23T18:07:02.696Z,0.60
2018-09-23T18:09:31.219Z,0.60
2018-09-23T18:11:59.640Z,0.70
2018-09-23T18:14:28.095Z,0.70
2018-09-23T18:16:56.500Z,0.80
2018-09-23T18:19:25.929Z,0.60
2018-09-23T18:21:55.059Z,0.73
2018-09-23T18:24:23.523Z,0.80
2018-09-23T18:26:51.932Z,0.73
2018-09-23T18:29:20.478Z,0.90
2018-09-23T18:31:48.994Z,0.87
2018-09-23T18:34:17.657Z,0.80
2018-09-23T18:36:46.166Z,0.80
2018-09-23T18:39:14.960Z,0.73
2018-09-23T18:41:43.672Z,0.80
2018-09-23T18:44:12.241Z,0.90
2018-09-23T18:46:41.441Z,0.80
2018-09-23T18:49:10.319Z,0.80
2018-09-23T18:51:38.862Z,0.90
2018-09-23T18:54:13.456Z,1.00
2018-09-23T18:56:42.089Z,2.27
2018-09-23T18:59:10.719Z,0.90
2018-09-23T19:01:39.202Z,0.93
2018-09-23T19:04:08.376Z,1.50
2018-09-23T19:06:36.831Z,1.00
2018-09-23T19:09:06.664Z,0.90
2018-09-23T19:11:35.136Z,0.90
2018-09-23T19:14:04.183Z,1.00
2018-09-23T19:16:33.676Z,1.00
2018-09-23T19:19:02.110Z,0.87
2018-09-23T19:21:30.950Z,1.20
2018-09-23T19:23:59.668Z,0.90
2018-09-23T19:26:28.886Z,1.00
2018-09-23T19:28:57.359Z,0.97
2018-09-23T19:31:25.883Z,1.00
2018-09-23T19:33:54.700Z,1.10
2018-09-23T19:36:23.164Z,0.80
2018-09-23T19:38:51.594Z,1.10
2018-09-23T19:41:21.016Z,1.23
2018-09-23T19:43:49.991Z,0.80
2018-09-23T19:46:18.519Z,0.83
2018-09-23T19:48:47.598Z,0.77
2018-09-23T19:51:15.970Z,0.97
2018-09-23T19:53:44.413Z,0.80
2018-09-23T19:56:12.836Z,0.80
2018-09-23T19:58:41.384Z,0.77
2018-09-23T20:01:10.755Z,0.80
2018-09-23T20:03:39.743Z,0.90
2018-09-23T20:06:08.389Z,1.17
2018-09-23T20:08:39.348Z,0.80
2018-09-23T20:11:07.754Z,0.60
2018-09-23T20:13:36.687Z,0.70
2018-09-23T20:16:05.160Z,0.60
2018-09-23T20:18:33.585Z,0.80
2018-09-23T20:21:03.060Z,1.07
2018-09-23T20:23:31.451Z,0.70
2018-09-23T20:25:59.975Z,0.70
2018-09-23T20:28:28.909Z,0.60
2018-09-23T20:30:57.324Z,0.70
2018-09-23T20:33:25.679Z,0.73
2018-09-23T20:35:54.098Z,0.73
2018-09-23T20:38:22.402Z,0.73
2018-09-23T20:40:50.784Z,0.73
2018-09-23T20:43:19.150Z,0.90
2018-09-23T20:45:47.509Z,0.80
2018-09-23T20:48:16.040Z,0.80
2018-09-23T20:50:44.384Z,0.70
2018-09-23T20:53:13.891Z,0.73
2018-09-23T20:55:42.273Z,0.50
2018-09-23T20:58:10.620Z,0.40
2018-09-23T21:00:38.918Z,0.63
2018-09-23T21:03:07.255Z,0.70
2018-09-23T21:05:36.390Z,0.60
2018-09-23T21:08:04.726Z,0.50
2018-09-23T21:10:33.006Z,0.60
2018-09-23T21:13:01.308Z,0.60
2018-09-23T21:15:29.598Z,0.50
2018-09-23T21:17:57.890Z,0.47
2018-09-23T21:20:26.316Z,0.60
2018-09-23T21:22:54.605Z,0.57
2018-09-23T21:25:22.900Z,0.47
2018-09-23T21:27:51.200Z,0.40
2018-09-23T21:30:19.476Z,0.40
2018-09-23T21:32:47.770Z,0.50
2018-09-23T21:35:16.077Z,0.50
2018-09-23T21:37:44.380Z,0.60
2018-09-23T21:40:13.550Z,0.50
2018-09-23T21:42:41.847Z,0.50
2018-09-23T21:45:10.792Z,0.43
2018-09-23T21:47:39.080Z,0.50
2018-09-23T21:50:07.555Z,0.70
2018-09-23T21:52:35.872Z,0.40
2018-09-23T21:55:04.174Z,0.60
2018-09-23T21:57:33.124Z,0.60
2018-09-23T22:00:01.430Z,0.57
2018-09-23T22:02:29.732Z,0.50
2018-09-23T22:04:58.022Z,0.40
2018-09-23T22:07:26.313Z,0.47
2018-09-23T22:09:54.640Z,0.50
2018-09-23T22:12:24.067Z,0.60
2018-09-23T22:14:52.348Z,0.50
2018-09-23T22:17:20.664Z,0.60
2018-09-23T22:19:48.966Z,0.60
2018-09-23T22:22:17.292Z,0.50
2018-09-23T22:24:45.577Z,0.40
2018-09-23T22:27:13.888Z,0.47
2018-09-23T22:29:42.738Z,0.67
2018-09-23T22:32:11.738Z,0.30
2018-09-23T22:34:40.010Z,0.50
2018-09-23T22:37:08.288Z,0.40
2018-09-23T22:39:37.242Z,0.50
2018-09-23T22:42:05.545Z,0.50
2018-09-23T22:44:33.816Z,0.60
2018-09-23T22:47:02.116Z,0.53
2018-09-23T22:49:31.029Z,0.40
2018-09-23T22:51:59.308Z,0.20
2018-09-23T22:54:27.593Z,0.50
2018-09-23T22:56:55.854Z,0.30
2018-09-23T22:59:24.132Z,0.60
2018-09-23T23:01:52.381Z,0.40
2018-09-23T23:04:20.640Z,0.57
2018-09-23T23:06:48.928Z,0.50
2018-09-23T23:09:17.204Z,0.30
2018-09-23T23:11:45.484Z,0.63
2018-09-23T23:14:13.744Z,0.67
2018-09-23T23:16:42.001Z,0.47
2018-09-23T23:19:10.280Z,0.60
2018-09-23T23:21:38.560Z,1.17
2018-09-23T23:24:06.878Z,0.60
2018-09-23T23:26:35.168Z,0.63
2018-09-23T23:29:03.435Z,0.40
2018-09-23T23:31:31.714Z,0.60
2018-09-23T23:33:59.972Z,0.50
2018-09-23T23:36:28.233Z,0.40
2018-09-23T23:38:56.501Z,0.50
2018-09-23T23:41:24.778Z,0.70
2018-09-23T23:43:53.061Z,0.43
2018-09-23T23:46:21.433Z,0.60
2018-09-23T23:48:49.708Z,0.50
2018-09-23T23:51:18.077Z,0.50
2018-09-23T23:53:46.357Z,0.47
2018-09-23T23:56:14.621Z,0.57
2018-09-23T23:58:42.897Z,0.57
